sensor_id;sensor_type;location;lat;lon;timestamp;pressure;altitude;pressure_sealevel;temperature;humidity
72308;BME280;60257;42.638;23.376;2023-09-19T00:02:01;95033.78;;;15.52;72.19
72308;BME280;60257;42.638;23.376;2023-09-19T00:04:32;95037.25;;;15.49;72.59
72308;BME280;60257;42.638;23.376;2023-09-19T00:06:59;95033.28;;;15.46;72.88
72308;BME280;60257;42.638;23.376;2023-09-19T00:09:24;95034.09;;;15.47;73.06
72308;BME280;60257;42.638;23.376;2023-09-19T00:11:53;95037.59;;;15.44;73.24
72308;BME280;60257;42.638;23.376;2023-09-19T00:14:18;95040.34;;;15.44;73.28
72308;BME280;60257;42.638;23.376;2023-09-19T00:16:44;95026.47;;;15.40;73.58
72308;BME280;60257;42.638;23.376;2023-09-19T00:19:12;95026.78;;;15.35;73.69
72308;BME280;60257;42.638;23.376;2023-09-19T00:21:38;95022.72;;;15.29;73.76
72308;BME280;60257;42.638;23.376;2023-09-19T00:24:06;95021.94;;;15.28;74.12
72308;BME280;60257;42.638;23.376;2023-09-19T00:26:32;95032.53;;;15.26;74.21
72308;BME280;60257;42.638;23.376;2023-09-19T00:28:59;95019.53;;;15.27;74.10
72308;BME280;60257;42.638;23.376;2023-09-19T00:31:30;95021.44;;;15.23;74.01
72308;BME280;60257;42.638;23.376;2023-09-19T00:33:55;95028.84;;;15.19;74.35
72308;BME280;60257;42.638;23.376;2023-09-19T00:36:25;95025.25;;;15.15;74.72
72308;BME280;60257;42.638;23.376;2023-09-19T00:38:50;95022.41;;;15.11;74.94
72308;BME280;60257;42.638;23.376;2023-09-19T00:41:16;95010.94;;;15.09;75.33
72308;BME280;60257;42.638;23.376;2023-09-19T00:43:41;95016.03;;;15.07;75.24
72308;BME280;60257;42.638;23.376;2023-09-19T00:46:07;95016.34;;;15.02;75.48
72308;BME280;60257;42.638;23.376;2023-09-19T00:48:40;95007.25;;;15.01;75.71
72308;BME280;60257;42.638;23.376;2023-09-19T00:51:09;95012.69;;;14.98;75.82
72308;BME280;60257;42.638;23.376;2023-09-19T00:53:35;95011.75;;;14.90;76.10
72308;BME280;60257;42.638;23.376;2023-09-19T00:56:02;94999.34;;;14.81;76.80
72308;BME280;60257;42.638;23.376;2023-09-19T00:58:28;95007.63;;;14.81;76.99
72308;BME280;60257;42.638;23.376;2023-09-19T01:00:59;95020.22;;;14.78;77.42
72308;BME280;60257;42.638;23.376;2023-09-19T01:03:24;95018.09;;;14.72;77.54
72308;BME280;60257;42.638;23.376;2023-09-19T01:05:50;95007.06;;;14.72;77.83
72308;BME280;60257;42.638;23.376;2023-09-19T01:08:15;95011.00;;;14.71;78.07
72308;BME280;60257;42.638;23.376;2023-09-19T01:10:50;95012.53;;;14.68;78.27
72308;BME280;60257;42.638;23.376;2023-09-19T01:13:31;95008.38;;;14.58;78.75
72308;BME280;60257;42.638;23.376;2023-09-19T01:16:40;95014.47;;;14.48;79.30
72308;BME280;60257;42.638;23.376;2023-09-19T01:22:15;95005.88;;;14.34;79.90
72308;BME280;60257;42.638;23.376;2023-09-19T01:30:43;95011.75;;;14.33;80.29
72308;BME280;60257;42.638;23.376;2023-09-19T01:33:09;95017.00;;;14.38;80.02
72308;BME280;60257;42.638;23.376;2023-09-19T01:35:38;95017.84;;;14.38;80.10
72308;BME280;60257;42.638;23.376;2023-09-19T01:38:05;95019.03;;;14.41;80.04
72308;BME280;60257;42.638;23.376;2023-09-19T01:40:43;95008.28;;;14.36;80.05
72308;BME280;60257;42.638;23.376;2023-09-19T01:43:24;95013.13;;;14.39;79.92
72308;BME280;60257;42.638;23.376;2023-09-19T01:52:09;94999.03;;;14.44;79.81
72308;BME280;60257;42.638;23.376;2023-09-19T01:54:46;94996.34;;;14.47;80.03
72308;BME280;60257;42.638;23.376;2023-09-19T01:57:32;95002.59;;;14.44;80.07
72308;BME280;60257;42.638;23.376;2023-09-19T02:00:06;95004.19;;;14.45;80.25
72308;BME280;60257;42.638;23.376;2023-09-19T02:02:35;95008.19;;;14.48;80.15
72308;BME280;60257;42.638;23.376;2023-09-19T02:05:03;95016.38;;;14.44;80.21
72308;BME280;60257;42.638;23.376;2023-09-19T02:07:29;95012.63;;;14.37;80.33
72308;BME280;60257;42.638;23.376;2023-09-19T02:09:57;95025.38;;;14.41;80.61
72308;BME280;60257;42.638;23.376;2023-09-19T02:12:24;95026.00;;;14.35;80.19
72308;BME280;60257;42.638;23.376;2023-09-19T02:14:49;95024.78;;;14.32;80.08
72308;BME280;60257;42.638;23.376;2023-09-19T02:17:15;95024.59;;;14.25;80.40
72308;BME280;60257;42.638;23.376;2023-09-19T02:19:41;95018.31;;;14.24;80.19
72308;BME280;60257;42.638;23.376;2023-09-19T02:22:07;95022.22;;;14.23;80.42
72308;BME280;60257;42.638;23.376;2023-09-19T02:24:33;95023.72;;;14.21;80.21
72308;BME280;60257;42.638;23.376;2023-09-19T02:26:59;95019.72;;;14.18;80.21
72308;BME280;60257;42.638;23.376;2023-09-19T02:29:29;95013.34;;;14.14;80.36
72308;BME280;60257;42.638;23.376;2023-09-19T02:31:55;95016.91;;;14.15;80.44
72308;BME280;60257;42.638;23.376;2023-09-19T02:34:21;95009.06;;;14.17;80.42
72308;BME280;60257;42.638;23.376;2023-09-19T02:36:47;95000.78;;;14.17;80.34
72308;BME280;60257;42.638;23.376;2023-09-19T02:39:13;95003.47;;;14.13;80.45
72308;BME280;60257;42.638;23.376;2023-09-19T02:41:38;94992.75;;;14.08;80.78
72308;BME280;60257;42.638;23.376;2023-09-19T02:44:04;94995.34;;;14.01;81.48
72308;BME280;60257;42.638;23.376;2023-09-19T02:46:33;94988.22;;;14.00;81.33
72308;BME280;60257;42.638;23.376;2023-09-19T02:48:59;94979.56;;;14.02;81.19
72308;BME280;60257;42.638;23.376;2023-09-19T02:51:24;94985.38;;;13.97;81.54
72308;BME280;60257;42.638;23.376;2023-09-19T02:53:50;94987.03;;;13.82;82.42
72308;BME280;60257;42.638;23.376;2023-09-19T02:56:18;94983.03;;;13.79;82.52
72308;BME280;60257;42.638;23.376;2023-09-19T02:58:44;94980.09;;;13.72;83.33
72308;BME280;60257;42.638;23.376;2023-09-19T03:01:10;94971.78;;;13.69;83.84
72308;BME280;60257;42.638;23.376;2023-09-19T03:03:38;94971.31;;;13.67;84.31
72308;BME280;60257;42.638;23.376;2023-09-19T03:06:05;94974.72;;;13.60;84.76
72308;BME280;60257;42.638;23.376;2023-09-19T03:08:31;94971.88;;;13.57;85.26
72308;BME280;60257;42.638;23.376;2023-09-19T03:11:04;94973.31;;;13.51;85.54
72308;BME280;60257;42.638;23.376;2023-09-19T03:13:37;94968.50;;;13.47;85.58
72308;BME280;60257;42.638;23.376;2023-09-19T03:16:06;94962.22;;;13.47;85.88
72308;BME280;60257;42.638;23.376;2023-09-19T03:18:34;94965.16;;;13.38;86.31
72308;BME280;60257;42.638;23.376;2023-09-19T03:21:00;94973.25;;;13.31;86.63
72308;BME280;60257;42.638;23.376;2023-09-19T03:23:27;94974.75;;;13.29;86.98
72308;BME280;60257;42.638;23.376;2023-09-19T03:25:55;94966.38;;;13.25;86.93
72308;BME280;60257;42.638;23.376;2023-09-19T03:28:22;94967.53;;;13.24;87.09
72308;BME280;60257;42.638;23.376;2023-09-19T03:30:58;94966.50;;;13.29;87.12
72308;BME280;60257;42.638;23.376;2023-09-19T03:33:25;94971.19;;;13.28;87.36
72308;BME280;60257;42.638;23.376;2023-09-19T03:35:54;94969.59;;;13.27;87.03
72308;BME280;60257;42.638;23.376;2023-09-19T03:38:20;94968.44;;;13.28;87.36
72308;BME280;60257;42.638;23.376;2023-09-19T03:40:47;94960.19;;;13.28;87.51
72308;BME280;60257;42.638;23.376;2023-09-19T03:43:13;94965.25;;;13.26;87.70
72308;BME280;60257;42.638;23.376;2023-09-19T03:45:38;94970.69;;;13.23;87.76
72308;BME280;60257;42.638;23.376;2023-09-19T03:48:10;94973.44;;;13.23;87.60
72308;BME280;60257;42.638;23.376;2023-09-19T03:50:36;94977.25;;;13.18;88.10
72308;BME280;60257;42.638;23.376;2023-09-19T03:53:02;94974.41;;;13.15;88.45
72308;BME280;60257;42.638;23.376;2023-09-19T03:55:27;94971.06;;;13.09;88.42
72308;BME280;60257;42.638;23.376;2023-09-19T03:57:53;94985.28;;;13.11;88.56
72308;BME280;60257;42.638;23.376;2023-09-19T04:00:19;94983.25;;;13.08;88.77
72308;BME280;60257;42.638;23.376;2023-09-19T04:02:47;94983.25;;;13.08;88.54
72308;BME280;60257;42.638;23.376;2023-09-19T04:05:13;94991.72;;;13.15;88.56
72308;BME280;60257;42.638;23.376;2023-09-19T04:07:38;94990.59;;;13.16;88.45
72308;BME280;60257;42.638;23.376;2023-09-19T04:10:04;94984.34;;;13.19;88.35
72308;BME280;60257;42.638;23.376;2023-09-19T04:12:30;94990.66;;;13.20;88.11
72308;BME280;60257;42.638;23.376;2023-09-19T04:14:56;94998.47;;;13.18;88.55
72308;BME280;60257;42.638;23.376;2023-09-19T04:17:21;95005.41;;;13.27;87.97
72308;BME280;60257;42.638;23.376;2023-09-19T04:19:48;94997.94;;;13.28;87.71
72308;BME280;60257;42.638;23.376;2023-09-19T04:22:13;95001.22;;;13.33;87.69
72308;BME280;60257;42.638;23.376;2023-09-19T04:24:39;95009.66;;;13.40;86.82
72308;BME280;60257;42.638;23.376;2023-09-19T04:27:05;95004.88;;;13.37;85.83
72308;BME280;60257;42.638;23.376;2023-09-19T04:29:30;95007.97;;;13.36;85.34
72308;BME280;60257;42.638;23.376;2023-09-19T04:31:56;95004.94;;;13.41;85.14
72308;BME280;60257;42.638;23.376;2023-09-19T04:34:22;94999.00;;;13.39;85.08
72308;BME280;60257;42.638;23.376;2023-09-19T04:36:49;95000.97;;;13.38;85.72
72308;BME280;60257;42.638;23.376;2023-09-19T04:39:15;94994.81;;;13.45;85.83
72308;BME280;60257;42.638;23.376;2023-09-19T04:41:40;94986.22;;;13.46;85.87
72308;BME280;60257;42.638;23.376;2023-09-19T04:44:06;94993.50;;;13.55;85.73
72308;BME280;60257;42.638;23.376;2023-09-19T04:46:33;94993.72;;;13.65;85.16
72308;BME280;60257;42.638;23.376;2023-09-19T04:48:59;94985.09;;;13.67;85.12
72308;BME280;60257;42.638;23.376;2023-09-19T04:51:24;94989.16;;;13.73;85.05
72308;BME280;60257;42.638;23.376;2023-09-19T04:53:52;94995.66;;;13.80;84.88
72308;BME280;60257;42.638;23.376;2023-09-19T04:56:17;94986.72;;;13.87;84.86
72308;BME280;60257;42.638;23.376;2023-09-19T04:58:42;94984.50;;;13.93;84.23
72308;BME280;60257;42.638;23.376;2023-09-19T05:01:08;94985.53;;;14.04;83.84
72308;BME280;60257;42.638;23.376;2023-09-19T05:03:37;94984.63;;;14.15;83.74
72308;BME280;60257;42.638;23.376;2023-09-19T05:06:02;94972.94;;;14.22;82.82
72308;BME280;60257;42.638;23.376;2023-09-19T05:08:29;94971.72;;;14.39;82.53
72308;BME280;60257;42.638;23.376;2023-09-19T05:10:54;94968.75;;;14.47;81.45
72308;BME280;60257;42.638;23.376;2023-09-19T05:13:21;94965.38;;;14.57;81.01
72308;BME280;60257;42.638;23.376;2023-09-19T05:15:48;94972.34;;;14.71;80.91
72308;BME280;60257;42.638;23.376;2023-09-19T05:18:15;94970.56;;;14.82;80.79
72308;BME280;60257;42.638;23.376;2023-09-19T05:20:41;94966.91;;;14.97;80.65
72308;BME280;60257;42.638;23.376;2023-09-19T05:23:07;94973.13;;;15.13;79.49
72308;BME280;60257;42.638;23.376;2023-09-19T05:25:38;94972.63;;;15.30;79.13
72308;BME280;60257;42.638;23.376;2023-09-19T05:28:09;94968.50;;;15.44;78.42
72308;BME280;60257;42.638;23.376;2023-09-19T05:30:35;94964.81;;;15.59;77.88
72308;BME280;60257;42.638;23.376;2023-09-19T05:33:05;94956.22;;;15.64;77.54
72308;BME280;60257;42.638;23.376;2023-09-19T05:35:30;94956.72;;;15.73;77.17
72308;BME280;60257;42.638;23.376;2023-09-19T05:37:56;94969.47;;;15.77;76.79
72308;BME280;60257;42.638;23.376;2023-09-19T05:40:23;94965.19;;;15.84;76.37
72308;BME280;60257;42.638;23.376;2023-09-19T05:42:49;94960.03;;;15.82;76.18
72308;BME280;60257;42.638;23.376;2023-09-19T05:45:16;94967.53;;;15.82;76.05
72308;BME280;60257;42.638;23.376;2023-09-19T05:47:50;94964.03;;;15.85;75.52
72308;BME280;60257;42.638;23.376;2023-09-19T05:50:16;94962.59;;;15.94;75.48
72308;BME280;60257;42.638;23.376;2023-09-19T05:52:43;94965.56;;;16.08;75.59
72308;BME280;60257;42.638;23.376;2023-09-19T05:55:17;94961.38;;;16.22;74.15
72308;BME280;60257;42.638;23.376;2023-09-19T05:57:43;94955.22;;;16.35;73.70
72308;BME280;60257;42.638;23.376;2023-09-19T06:00:09;94948.22;;;16.45;73.00
72308;BME280;60257;42.638;23.376;2023-09-19T06:02:38;94939.63;;;16.53;72.35
72308;BME280;60257;42.638;23.376;2023-09-19T06:05:06;94949.91;;;16.53;71.92
72308;BME280;60257;42.638;23.376;2023-09-19T06:07:34;94941.94;;;16.48;72.14
72308;BME280;60257;42.638;23.376;2023-09-19T06:10:06;94948.03;;;16.61;71.59
72308;BME280;60257;42.638;23.376;2023-09-19T06:12:32;94945.00;;;16.73;71.28
72308;BME280;60257;42.638;23.376;2023-09-19T06:15:03;94935.13;;;16.72;70.72
72308;BME280;60257;42.638;23.376;2023-09-19T06:17:30;94940.66;;;16.72;71.31
72308;BME280;60257;42.638;23.376;2023-09-19T06:19:56;94943.44;;;16.75;71.41
72308;BME280;60257;42.638;23.376;2023-09-19T06:22:22;94943.50;;;16.82;71.39
72308;BME280;60257;42.638;23.376;2023-09-19T06:24:49;94938.84;;;16.90;71.27
72308;BME280;60257;42.638;23.376;2023-09-19T06:27:15;94950.41;;;16.99;70.53
72308;BME280;60257;42.638;23.376;2023-09-19T06:29:40;94942.84;;;16.96;69.69
72308;BME280;60257;42.638;23.376;2023-09-19T06:32:08;94937.44;;;17.07;69.79
72308;BME280;60257;42.638;23.376;2023-09-19T06:34:37;94938.22;;;17.07;69.35
72308;BME280;60257;42.638;23.376;2023-09-19T06:37:04;94932.31;;;17.12;69.40
72308;BME280;60257;42.638;23.376;2023-09-19T06:39:31;94932.81;;;17.21;68.83
72308;BME280;60257;42.638;23.376;2023-09-19T06:41:57;94933.28;;;17.30;68.51
72308;BME280;60257;42.638;23.376;2023-09-19T06:44:23;94934.19;;;17.42;68.45
72308;BME280;60257;42.638;23.376;2023-09-19T06:46:50;94935.75;;;17.39;68.54
72308;BME280;60257;42.638;23.376;2023-09-19T06:49:17;94937.38;;;17.47;68.66
72308;BME280;60257;42.638;23.376;2023-09-19T06:51:43;94947.75;;;17.54;68.46
72308;BME280;60257;42.638;23.376;2023-09-19T06:54:11;94955.28;;;17.57;67.91
72308;BME280;60257;42.638;23.376;2023-09-19T06:56:37;94939.38;;;17.50;67.50
72308;BME280;60257;42.638;23.376;2023-09-19T06:59:03;94941.38;;;17.53;67.44
72308;BME280;60257;42.638;23.376;2023-09-19T07:01:31;94950.63;;;17.64;67.19
72308;BME280;60257;42.638;23.376;2023-09-19T07:03:57;94946.25;;;17.63;66.90
72308;BME280;60257;42.638;23.376;2023-09-19T07:06:22;94950.63;;;17.64;66.42
72308;BME280;60257;42.638;23.376;2023-09-19T07:08:48;94952.63;;;17.67;67.09
72308;BME280;60257;42.638;23.376;2023-09-19T07:11:15;94950.63;;;17.64;66.70
72308;BME280;60257;42.638;23.376;2023-09-19T07:13:41;94949.50;;;17.73;67.00
72308;BME280;60257;42.638;23.376;2023-09-19T07:16:06;94957.09;;;17.83;66.54
72308;BME280;60257;42.638;23.376;2023-09-19T07:18:34;94961.88;;;17.89;66.09
72308;BME280;60257;42.638;23.376;2023-09-19T07:20:59;94956.03;;;18.01;65.78
72308;BME280;60257;42.638;23.376;2023-09-19T07:23:30;94948.16;;;18.11;65.22
72308;BME280;60257;42.638;23.376;2023-09-19T07:26:03;94954.53;;;18.22;64.71
72308;BME280;60257;42.638;23.376;2023-09-19T07:28:30;94952.63;;;18.36;64.24
72308;BME280;60257;42.638;23.376;2023-09-19T07:30:56;94959.03;;;18.48;64.17
72308;BME280;60257;42.638;23.376;2023-09-19T07:33:21;94959.44;;;18.53;63.62
72308;BME280;60257;42.638;23.376;2023-09-19T07:35:47;94947.59;;;18.56;63.61
72308;BME280;60257;42.638;23.376;2023-09-19T07:38:13;94955.53;;;18.61;62.81
72308;BME280;60257;42.638;23.376;2023-09-19T07:40:39;94955.94;;;18.67;63.04
72308;BME280;60257;42.638;23.376;2023-09-19T07:43:05;94954.41;;;18.73;62.95
72308;BME280;60257;42.638;23.376;2023-09-19T07:45:32;94960.00;;;18.87;62.55
72308;BME280;60257;42.638;23.376;2023-09-19T07:47:58;94945.31;;;18.90;61.35
72308;BME280;60257;42.638;23.376;2023-09-19T07:50:25;94954.88;;;18.96;61.12
72308;BME280;60257;42.638;23.376;2023-09-19T07:52:52;94950.50;;;19.02;62.17
72308;BME280;60257;42.638;23.376;2023-09-19T07:55:18;94954.91;;;19.17;62.66
72308;BME280;60257;42.638;23.376;2023-09-19T07:57:45;94953.31;;;19.23;62.60
72308;BME280;60257;42.638;23.376;2023-09-19T08:00:12;94961.25;;;19.29;61.13
72308;BME280;60257;42.638;23.376;2023-09-19T08:02:40;94960.50;;;19.35;60.98
72308;BME280;60257;42.638;23.376;2023-09-19T08:05:12;94964.84;;;19.33;60.62
72308;BME280;60257;42.638;23.376;2023-09-19T08:07:42;94964.06;;;19.32;60.40
72308;BME280;60257;42.638;23.376;2023-09-19T08:10:09;94970.44;;;19.40;60.55
72308;BME280;60257;42.638;23.376;2023-09-19T08:12:44;94951.34;;;19.38;60.02
72308;BME280;60257;42.638;23.376;2023-09-19T08:15:16;94956.53;;;19.40;60.14
72308;BME280;60257;42.638;23.376;2023-09-19T08:17:42;94949.41;;;19.49;60.66
72308;BME280;60257;42.638;23.376;2023-09-19T08:20:09;94943.84;;;19.53;59.82
72308;BME280;60257;42.638;23.376;2023-09-19T08:22:48;94943.84;;;19.53;59.85
72308;BME280;60257;42.638;23.376;2023-09-19T08:25:18;94940.25;;;19.63;60.35
72308;BME280;60257;42.638;23.376;2023-09-19T08:27:48;94934.69;;;19.74;60.40
72308;BME280;60257;42.638;23.376;2023-09-19T08:30:16;94928.72;;;19.86;60.63
72308;BME280;60257;42.638;23.376;2023-09-19T08:32:42;94927.91;;;19.89;60.23
72308;BME280;60257;42.638;23.376;2023-09-19T08:35:11;94932.69;;;19.95;59.36
72308;BME280;60257;42.638;23.376;2023-09-19T08:37:37;94938.22;;;20.10;60.03
72308;BME280;60257;42.638;23.376;2023-09-19T08:40:02;94933.03;;;20.15;58.96
72308;BME280;60257;42.638;23.376;2023-09-19T08:42:28;94931.44;;;20.14;57.77
72308;BME280;60257;42.638;23.376;2023-09-19T08:44:55;94935.38;;;20.24;57.80
72308;BME280;60257;42.638;23.376;2023-09-19T08:47:38;94940.97;;;20.27;57.99
72308;BME280;60257;42.638;23.376;2023-09-19T08:52:43;94932.53;;;20.56;57.67
72308;BME280;60257;42.638;23.376;2023-09-19T08:55:12;94927.28;;;20.68;57.77
72308;BME280;60257;42.638;23.376;2023-09-19T08:57:38;94914.91;;;20.77;56.08
72308;BME280;60257;42.638;23.376;2023-09-19T09:00:08;94919.63;;;20.83;56.09
72308;BME280;60257;42.638;23.376;2023-09-19T09:02:38;94916.81;;;20.94;56.68
72308;BME280;60257;42.638;23.376;2023-09-19T09:05:11;94911.56;;;21.03;56.49
72308;BME280;60257;42.638;23.376;2023-09-19T09:07:40;94916.00;;;20.97;55.15
72308;BME280;60257;42.638;23.376;2023-09-19T09:10:07;94907.31;;;20.81;56.00
72308;BME280;60257;42.638;23.376;2023-09-19T09:12:34;94905.38;;;20.74;56.00
72308;BME280;60257;42.638;23.376;2023-09-19T09:15:02;94901.78;;;20.73;56.06
72308;BME280;60257;42.638;23.376;2023-09-19T09:17:29;94899.00;;;20.73;56.08
72308;BME280;60257;42.638;23.376;2023-09-19T09:19:56;94904.16;;;20.79;55.87
72308;BME280;60257;42.638;23.376;2023-09-19T09:22:22;94904.94;;;20.75;56.04
72308;BME280;60257;42.638;23.376;2023-09-19T09:27:23;94891.84;;;20.72;56.51
72308;BME280;60257;42.638;23.376;2023-09-19T09:29:51;94889.03;;;20.76;56.10
72308;BME280;60257;42.638;23.376;2023-09-19T09:32:26;94889.81;;;20.80;56.19
72308;BME280;60257;42.638;23.376;2023-09-19T09:34:58;94892.91;;;20.96;55.22
72308;BME280;60257;42.638;23.376;2023-09-19T09:37:25;94896.94;;;20.88;56.45
72308;BME280;60257;42.638;23.376;2023-09-19T09:39:56;94883.69;;;21.03;55.48
72308;BME280;60257;42.638;23.376;2023-09-19T09:42:33;94890.66;;;21.32;54.81
72308;BME280;60257;42.638;23.376;2023-09-19T09:47:54;94879.25;;;21.61;53.45
72308;BME280;60257;42.638;23.376;2023-09-19T09:50:31;94870.78;;;21.75;53.73
72308;BME280;60257;42.638;23.376;2023-09-19T09:53:29;94862.59;;;21.95;53.81
72308;BME280;60257;42.638;23.376;2023-09-19T09:56:07;94858.38;;;22.17;53.81
72308;BME280;60257;42.638;23.376;2023-09-19T09:58:49;94864.84;;;22.44;52.85
72308;BME280;60257;42.638;23.376;2023-09-19T10:01:15;94854.59;;;22.64;51.69
72308;BME280;60257;42.638;23.376;2023-09-19T10:03:42;94844.94;;;22.69;50.83
72308;BME280;60257;42.638;23.376;2023-09-19T10:06:16;94853.47;;;22.58;51.03
72308;BME280;60257;42.638;23.376;2023-09-19T10:09:11;94860.28;;;22.57;51.35
72308;BME280;60257;42.638;23.376;2023-09-19T10:11:47;94858.50;;;22.71;51.20
72308;BME280;60257;42.638;23.376;2023-09-19T10:14:20;94859.66;;;22.73;51.03
72308;BME280;60257;42.638;23.376;2023-09-19T10:16:53;94854.09;;;22.73;51.02
72308;BME280;60257;42.638;23.376;2023-09-19T10:22:14;94848.41;;;22.80;51.79
72308;BME280;60257;42.638;23.376;2023-09-19T10:24:43;94849.47;;;22.90;50.15
72308;BME280;60257;42.638;23.376;2023-09-19T10:27:10;94848.38;;;22.84;50.13
72308;BME280;60257;42.638;23.376;2023-09-19T10:29:39;94849.63;;;22.79;49.89
72308;BME280;60257;42.638;23.376;2023-09-19T10:32:05;94845.22;;;22.82;49.79
72308;BME280;60257;42.638;23.376;2023-09-19T10:34:38;94852.72;;;22.85;49.79
72308;BME280;60257;42.638;23.376;2023-09-19T10:37:07;94839.78;;;22.98;49.93
72308;BME280;60257;42.638;23.376;2023-09-19T10:39:39;94838.06;;;23.04;49.72
72308;BME280;60257;42.638;23.376;2023-09-19T10:42:06;94832.53;;;23.00;49.47
72308;BME280;60257;42.638;23.376;2023-09-19T10:44:37;94828.84;;;23.07;49.37
72308;BME280;60257;42.638;23.376;2023-09-19T10:47:06;94825.56;;;23.12;49.77
72308;BME280;60257;42.638;23.376;2023-09-19T10:49:32;94837.19;;;23.11;49.43
72308;BME280;60257;42.638;23.376;2023-09-19T10:51:59;94835.88;;;23.15;48.88
72308;BME280;60257;42.638;23.376;2023-09-19T10:54:29;94835.28;;;23.04;48.53
72308;BME280;60257;42.638;23.376;2023-09-19T10:56:59;94831.94;;;23.13;48.84
72308;BME280;60257;42.638;23.376;2023-09-19T10:59:26;94823.16;;;23.14;49.03
72308;BME280;60257;42.638;23.376;2023-09-19T11:02:00;94823.88;;;23.18;48.56
72308;BME280;60257;42.638;23.376;2023-09-19T11:04:31;94827.41;;;23.22;48.47
72308;BME280;60257;42.638;23.376;2023-09-19T11:07:11;94818.19;;;22.98;49.57
72308;BME280;60257;42.638;23.376;2023-09-19T11:09:53;94812.66;;;22.95;49.75
72308;BME280;60257;42.638;23.376;2023-09-19T11:14:58;94819.72;;;22.76;50.32
72308;BME280;60257;42.638;23.376;2023-09-19T11:17:34;94811.53;;;22.89;50.98
72308;BME280;60257;42.638;23.376;2023-09-19T11:46:24;94780.25;;;23.44;50.66
72308;BME280;60257;42.638;23.376;2023-09-19T11:48:54;94764.31;;;23.64;48.92
72308;BME280;60257;42.638;23.376;2023-09-19T11:51:21;94771.31;;;23.76;48.54
72308;BME280;60257;42.638;23.376;2023-09-19T11:53:54;94769.50;;;23.86;49.20
72308;BME280;60257;42.638;23.376;2023-09-19T11:56:22;94760.69;;;23.87;50.11
72308;BME280;60257;42.638;23.376;2023-09-19T11:58:50;94755.09;;;24.07;48.34
72308;BME280;60257;42.638;23.376;2023-09-19T12:01:27;94758.22;;;24.09;48.11
72308;BME280;60257;42.638;23.376;2023-09-19T12:03:56;94757.66;;;24.17;47.87
72308;BME280;60257;42.638;23.376;2023-09-19T12:06:24;94747.75;;;24.13;49.00
72308;BME280;60257;42.638;23.376;2023-09-19T12:08:51;94750.34;;;24.04;47.16
72308;BME280;60257;42.638;23.376;2023-09-19T12:11:19;94751.56;;;24.03;47.30
72308;BME280;60257;42.638;23.376;2023-09-19T12:13:47;94750.13;;;23.95;47.27
72308;BME280;60257;42.638;23.376;2023-09-19T12:16:14;94746.31;;;23.85;47.41
72308;BME280;60257;42.638;23.376;2023-09-19T12:18:41;94750.31;;;23.64;47.66
72308;BME280;60257;42.638;23.376;2023-09-19T12:21:29;94743.28;;;23.56;47.79
72308;BME280;60257;42.638;23.376;2023-09-19T12:26:39;94736.09;;;23.55;49.81
72308;BME280;60257;42.638;23.376;2023-09-19T12:29:11;94727.88;;;23.45;49.00
72308;BME280;60257;42.638;23.376;2023-09-19T12:31:50;94725.50;;;23.43;49.12
72308;BME280;60257;42.638;23.376;2023-09-19T12:34:27;94715.56;;;23.38;48.84
72308;BME280;60257;42.638;23.376;2023-09-19T12:37:10;94725.94;;;23.41;48.31
72308;BME280;60257;42.638;23.376;2023-09-19T12:39:44;94711.50;;;23.43;48.71
72308;BME280;60257;42.638;23.376;2023-09-19T12:42:18;94711.44;;;23.47;48.82
72308;BME280;60257;42.638;23.376;2023-09-19T12:44:49;94711.41;;;23.50;48.52
72308;BME280;60257;42.638;23.376;2023-09-19T12:47:17;94711.41;;;23.50;48.61
72308;BME280;60257;42.638;23.376;2023-09-19T12:50:14;94704.44;;;23.58;48.48
72308;BME280;60257;42.638;23.376;2023-09-19T12:52:49;94705.88;;;23.66;48.76
72308;BME280;60257;42.638;23.376;2023-09-19T12:55:29;94706.91;;;23.76;49.79
72308;BME280;60257;42.638;23.376;2023-09-19T12:58:00;94701.94;;;23.84;49.78
72308;BME280;60257;42.638;23.376;2023-09-19T13:00:40;94710.53;;;23.93;48.98
72308;BME280;60257;42.638;23.376;2023-09-19T13:03:25;94702.78;;;24.00;47.76
72308;BME280;60257;42.638;23.376;2023-09-19T13:08:19;94694.50;;;24.13;48.58
72308;BME280;60257;42.638;23.376;2023-09-19T13:13:36;94680.50;;;24.13;47.51
72308;BME280;60257;42.638;23.376;2023-09-19T13:16:03;94685.06;;;24.07;47.95
72308;BME280;60257;42.638;23.376;2023-09-19T13:18:41;94680.25;;;24.07;47.80
72308;BME280;60257;42.638;23.376;2023-09-19T13:21:14;94680.41;;;24.16;47.97
72308;BME280;60257;42.638;23.376;2023-09-19T13:23:50;94681.56;;;24.19;48.53
72308;BME280;60257;42.638;23.376;2023-09-19T13:26:16;94677.16;;;24.22;48.24
72308;BME280;60257;42.638;23.376;2023-09-19T13:28:41;94671.44;;;24.25;48.87
72308;BME280;60257;42.638;23.376;2023-09-19T13:31:09;94674.78;;;24.20;47.50
72308;BME280;60257;42.638;23.376;2023-09-19T13:33:42;94664.84;;;24.15;47.21
72308;BME280;60257;42.638;23.376;2023-09-19T13:36:08;94663.34;;;24.11;47.75
72308;BME280;60257;42.638;23.376;2023-09-19T13:38:34;94662.63;;;24.07;47.87
72308;BME280;60257;42.638;23.376;2023-09-19T13:41:00;94656.50;;;24.12;47.95
72308;BME280;60257;42.638;23.376;2023-09-19T13:43:27;94659.84;;;24.07;47.26
72308;BME280;60257;42.638;23.376;2023-09-19T13:45:54;94657.91;;;24.04;48.38
72308;BME280;60257;42.638;23.376;2023-09-19T13:48:19;94647.13;;;24.02;48.15
72308;BME280;60257;42.638;23.376;2023-09-19T13:50:48;94653.09;;;24.04;48.29
72308;BME280;60257;42.638;23.376;2023-09-19T13:53:14;94661.47;;;24.04;47.90
72308;BME280;60257;42.638;23.376;2023-09-19T13:55:40;94652.72;;;24.02;48.10
72308;BME280;60257;42.638;23.376;2023-09-19T13:58:06;94655.44;;;24.06;48.35
72308;BME280;60257;42.638;23.376;2023-09-19T14:00:32;94654.66;;;24.05;47.88
72308;BME280;60257;42.638;23.376;2023-09-19T14:03:01;94648.78;;;24.00;47.45